Time;durP1;ratioP1;P1;durP2;ratioP2;P2;SDS_P1;SDS_P2;PMS_P1;PMS_P2;Temp;Humidity;BMP_temperature;BMP_pressure;BME280_temperature;BME280_humidity;BME280_pressure;Samples;Min_cycle;Max_cycle;Signal;HPM_P1;HPM_P2
2020/01/23 00:00:25;;;;;;;10.43;8.70;;;;;;;18.70;36.91;102507.31;;;;-50
2020/01/23 00:03:22;;;;;;;10.23;8.63;;;;;;;18.69;36.87;102508.40;;;;-50
2020/01/23 00:06:22;;;;;;;11.16;9.07;;;;;;;18.68;36.79;102508.94;;;;-50
2020/01/23 00:09:22;;;;;;;9.75;8.35;;;;;;;18.66;36.84;102496.28;;;;-50
2020/01/23 00:12:22;;;;;;;10.57;8.95;;;;;;;18.66;36.94;102495.42;;;;-50
2020/01/23 00:15:22;;;;;;;11.68;8.84;;;;;;;18.64;36.93;102495.37;;;;-50
2020/01/23 00:18:22;;;;;;;10.69;8.87;;;;;;;18.62;36.85;102488.20;;;;-50
2020/01/23 00:21:22;;;;;;;10.67;9.13;;;;;;;18.61;36.92;102485.95;;;;-50
2020/01/23 00:24:22;;;;;;;10.59;8.83;;;;;;;18.59;36.87;102480.09;;;;-50
2020/01/23 00:27:22;;;;;;;10.56;8.95;;;;;;;18.58;36.83;102476.50;;;;-50
2020/01/23 00:30:22;;;;;;;11.50;9.26;;;;;;;18.57;36.89;102476.28;;;;-50
2020/01/23 00:33:37;;;;;;;11.25;8.93;;;;;;;18.57;36.86;102475.62;;;;-50
2020/01/23 00:36:41;;;;;;;11.13;9.11;;;;;;;18.54;36.84;102474.65;;;;-50
2020/01/23 00:39:22;;;;;;;11.03;8.85;;;;;;;18.54;36.94;102467.00;;;;-50
2020/01/23 00:42:22;;;;;;;11.30;9.04;;;;;;;18.52;36.92;102471.25;;;;-50
2020/01/23 00:45:22;;;;;;;11.21;9.47;;;;;;;18.51;36.94;102466.94;;;;-50
2020/01/23 00:48:22;;;;;;;11.52;9.31;;;;;;;18.50;36.92;102472.09;;;;-50
2020/01/23 00:51:22;;;;;;;11.47;9.29;;;;;;;18.49;36.89;102475.90;;;;-50
2020/01/23 00:54:22;;;;;;;11.77;9.67;;;;;;;18.48;36.92;102472.83;;;;-50
2020/01/23 00:57:22;;;;;;;11.39;9.48;;;;;;;18.47;36.90;102479.38;;;;-50
2020/01/23 01:00:22;;;;;;;11.71;9.47;;;;;;;18.45;36.97;102471.25;;;;-50
2020/01/23 01:04:22;;;;;;;11.21;9.19;;;;;;;18.43;36.94;102469.52;;;;-50
2020/01/23 01:07:22;;;;;;;11.17;9.07;;;;;;;18.42;36.91;102469.95;;;;-50
2020/01/23 01:10:22;;;;;;;11.78;9.51;;;;;;;18.41;36.98;102466.02;;;;-50
2020/01/23 01:13:22;;;;;;;11.35;9.30;;;;;;;18.40;36.85;102463.13;;;;-50
2020/01/23 01:16:22;;;;;;;11.53;9.29;;;;;;;18.39;36.91;102459.98;;;;-50
2020/01/23 01:19:22;;;;;;;11.61;9.23;;;;;;;18.38;36.94;102461.41;;;;-50
2020/01/23 01:25:27;;;;;;;11.63;9.41;;;;;;;18.36;36.88;102459.62;;;;-50
2020/01/23 01:28:41;;;;;;;11.55;9.42;;;;;;;18.35;36.96;102449.80;;;;-50
2020/01/23 01:31:27;;;;;;;11.39;9.35;;;;;;;18.33;36.95;102442.70;;;;-50
2020/01/23 01:34:22;;;;;;;11.07;8.75;;;;;;;18.33;36.91;102447.89;;;;-50
2020/01/23 01:37:22;;;;;;;11.11;9.26;;;;;;;18.32;36.96;102440.23;;;;-50
2020/01/23 01:40:22;;;;;;;11.97;9.56;;;;;;;18.30;36.98;102427.24;;;;-50
2020/01/23 01:45:22;;;;;;;11.68;9.39;;;;;;;18.28;36.91;102423.91;;;;-50
2020/01/23 01:48:22;;;;;;;10.97;9.39;;;;;;;18.28;36.99;102425.24;;;;-50
2020/01/23 01:51:22;;;;;;;11.33;9.29;;;;;;;18.26;37.04;102420.56;;;;-50
2020/01/23 01:54:22;;;;;;;11.53;9.31;;;;;;;18.25;37.00;102415.91;;;;-50
2020/01/23 01:57:22;;;;;;;11.48;9.45;;;;;;;18.24;36.92;102410.70;;;;-50
2020/01/23 02:00:22;;;;;;;11.84;9.57;;;;;;;18.24;36.98;102407.47;;;;-50
2020/01/23 02:04:22;;;;;;;10.78;9.25;;;;;;;18.22;36.90;102402.37;;;;-50
2020/01/23 02:07:22;;;;;;;10.64;8.97;;;;;;;18.21;36.99;102394.52;;;;-50
2020/01/23 02:10:22;;;;;;;12.19;9.94;;;;;;;18.19;37.09;102393.54;;;;-50
2020/01/23 02:13:22;;;;;;;12.17;9.59;;;;;;;18.18;36.92;102392.23;;;;-50
2020/01/23 02:16:22;;;;;;;11.83;9.36;;;;;;;18.18;36.97;102383.06;;;;-49
2020/01/23 02:19:22;;;;;;;10.84;8.95;;;;;;;18.17;36.97;102381.81;;;;-50
2020/01/23 02:22:22;;;;;;;11.27;9.27;;;;;;;18.16;37.02;102385.19;;;;-50
2020/01/23 02:25:22;;;;;;;10.95;9.10;;;;;;;18.14;36.91;102386.70;;;;-50
2020/01/23 02:28:21;;;;;;;11.19;9.06;;;;;;;18.14;37.04;102386.56;;;;-50
2020/01/23 02:31:22;;;;;;;11.49;8.87;;;;;;;18.13;37.04;102379.77;;;;-50
2020/01/23 02:34:22;;;;;;;10.95;9.26;;;;;;;18.12;37.06;102384.09;;;;-50
2020/01/23 02:37:22;;;;;;;11.23;9.28;;;;;;;18.11;37.06;102380.52;;;;-50
2020/01/23 02:40:22;;;;;;;10.65;9.28;;;;;;;18.11;37.06;102376.59;;;;-50
2020/01/23 02:43:22;;;;;;;11.16;9.41;;;;;;;18.10;37.06;102372.50;;;;-50
2020/01/23 02:46:22;;;;;;;10.33;8.81;;;;;;;18.07;36.97;102361.91;;;;-50
2020/01/23 02:49:22;;;;;;;10.35;9.20;;;;;;;18.08;37.01;102354.03;;;;-50
2020/01/23 02:52:22;;;;;;;11.46;9.37;;;;;;;18.07;36.99;102354.03;;;;-50
2020/01/23 02:55:23;;;;;;;10.91;9.04;;;;;;;18.06;37.01;102346.88;;;;-50
2020/01/23 02:58:22;;;;;;;10.23;8.85;;;;;;;18.05;37.04;102346.88;;;;-50
2020/01/23 03:01:22;;;;;;;10.27;8.78;;;;;;;18.05;36.93;102342.50;;;;-50
2020/01/23 03:07:22;;;;;;;10.25;8.99;;;;;;;18.02;37.09;102330.58;;;;-50
2020/01/23 03:10:22;;;;;;;9.39;8.21;;;;;;;18.01;37.02;102326.16;;;;-50
2020/01/23 03:13:22;;;;;;;9.32;8.21;;;;;;;18.00;37.08;102322.59;;;;-50
2020/01/23 03:16:22;;;;;;;9.43;8.29;;;;;;;17.99;37.00;102307.41;;;;-50
2020/01/23 03:19:22;;;;;;;9.56;8.33;;;;;;;17.98;37.13;102305.95;;;;-50
2020/01/23 03:22:22;;;;;;;9.87;8.49;;;;;;;17.98;37.11;102297.19;;;;-50
2020/01/23 03:25:22;;;;;;;9.09;8.07;;;;;;;17.98;37.12;102301.20;;;;-50
2020/01/23 03:28:22;;;;;;;9.29;8.01;;;;;;;17.97;37.08;102300.55;;;;-50
2020/01/23 03:31:22;;;;;;;9.86;8.35;;;;;;;17.96;37.18;102303.16;;;;-50
2020/01/23 03:34:22;;;;;;;9.15;8.07;;;;;;;17.96;37.16;102297.36;;;;-50
2020/01/23 03:37:22;;;;;;;8.97;7.97;;;;;;;17.95;37.17;102288.52;;;;-50
2020/01/23 03:40:22;;;;;;;9.22;7.86;;;;;;;17.92;37.16;102284.95;;;;-50
2020/01/23 03:43:22;;;;;;;9.00;7.81;;;;;;;17.93;37.16;102280.69;;;;-50
2020/01/23 03:49:23;;;;;;;9.39;7.97;;;;;;;17.92;37.10;102275.69;;;;-50
2020/01/23 03:52:22;;;;;;;9.04;7.71;;;;;;;17.92;37.16;102276.08;;;;-50
2020/01/23 03:55:22;;;;;;;8.55;7.66;;;;;;;17.90;37.19;102279.37;;;;-50
2020/01/23 03:58:22;;;;;;;8.53;7.63;;;;;;;17.89;37.20;102272.44;;;;-50
2020/01/23 04:01:22;;;;;;;8.05;7.15;;;;;;;17.88;37.14;102270.59;;;;-50
2020/01/23 04:04:22;;;;;;;8.65;7.69;;;;;;;17.87;37.17;102260.94;;;;-50
2020/01/23 04:07:22;;;;;;;8.22;7.37;;;;;;;17.88;37.08;102261.16;;;;-50
2020/01/23 04:10:22;;;;;;;9.29;7.79;;;;;;;17.86;37.21;102258.02;;;;-50
2020/01/23 04:13:22;;;;;;;8.15;7.15;;;;;;;17.85;37.18;102256.77;;;;-50
2020/01/23 04:16:22;;;;;;;8.45;7.46;;;;;;;17.85;37.21;102254.90;;;;-50
2020/01/23 04:19:22;;;;;;;8.51;7.36;;;;;;;17.83;37.22;102252.02;;;;-50
2020/01/23 04:22:22;;;;;;;7.71;6.91;;;;;;;17.83;37.12;102252.92;;;;-50
2020/01/23 04:25:21;;;;;;;7.85;7.01;;;;;;;17.82;37.21;102251.70;;;;-50
2020/01/23 04:28:22;;;;;;;8.47;7.47;;;;;;;17.80;37.28;102248.67;;;;-50
2020/01/23 04:31:22;;;;;;;8.17;7.11;;;;;;;17.80;37.17;102249.34;;;;-50
2020/01/23 04:34:22;;;;;;;7.89;6.87;;;;;;;17.80;37.26;102252.77;;;;-49
2020/01/23 04:37:23;;;;;;;7.50;6.76;;;;;;;17.79;37.09;102250.77;;;;-50
2020/01/23 04:40:22;;;;;;;7.73;6.89;;;;;;;17.79;37.08;102247.59;;;;-50
2020/01/23 04:43:21;;;;;;;7.40;6.70;;;;;;;17.80;37.13;102244.09;;;;-50
2020/01/23 04:46:22;;;;;;;7.79;6.95;;;;;;;17.81;37.23;102242.05;;;;-53
2020/01/23 04:49:22;;;;;;;7.47;6.67;;;;;;;17.83;37.28;102243.77;;;;-52
2020/01/23 04:52:22;;;;;;;6.91;6.21;;;;;;;17.83;37.26;102238.89;;;;-52
2020/01/23 04:55:22;;;;;;;6.79;6.09;;;;;;;17.85;37.25;102236.85;;;;-52
2020/01/23 04:58:22;;;;;;;7.03;6.08;;;;;;;17.87;37.31;102237.20;;;;-53
2020/01/23 05:01:22;;;;;;;6.86;6.16;;;;;;;17.89;37.13;102238.00;;;;-53
2020/01/23 05:04:22;;;;;;;6.85;6.14;;;;;;;17.92;37.47;102236.98;;;;-53
2020/01/23 05:07:22;;;;;;;6.60;5.90;;;;;;;17.95;37.27;102235.72;;;;-53
2020/01/23 05:10:22;;;;;;;6.74;5.86;;;;;;;17.97;37.44;102228.16;;;;-53
2020/01/23 05:13:22;;;;;;;6.34;5.61;;;;;;;18.01;37.45;102222.59;;;;-53
2020/01/23 05:16:22;;;;;;;6.21;5.61;;;;;;;18.04;37.49;102220.73;;;;-53
2020/01/23 05:19:22;;;;;;;6.29;5.69;;;;;;;18.08;37.43;102218.76;;;;-53
2020/01/23 05:22:22;;;;;;;6.07;5.47;;;;;;;18.12;37.46;102212.80;;;;-53
2020/01/23 05:25:22;;;;;;;6.01;5.41;;;;;;;18.16;37.47;102216.98;;;;-53
2020/01/23 05:28:22;;;;;;;6.17;5.57;;;;;;;18.21;37.47;102217.48;;;;-48
2020/01/23 05:31:22;;;;;;;6.11;5.51;;;;;;;18.25;37.47;102214.09;;;;-49
2020/01/23 05:34:22;;;;;;;6.22;5.34;;;;;;;18.29;37.52;102210.00;;;;-48
2020/01/23 05:37:22;;;;;;;5.91;5.31;;;;;;;18.32;37.54;102204.17;;;;-48
2020/01/23 05:40:22;;;;;;;5.97;5.37;;;;;;;18.36;37.59;102203.52;;;;-48
2020/01/23 05:43:22;;;;;;;5.52;5.02;;;;;;;18.41;37.52;102197.70;;;;-48
2020/01/23 05:46:22;;;;;;;5.53;5.03;;;;;;;18.45;37.50;102202.22;;;;-49
2020/01/23 05:49:22;;;;;;;5.45;4.95;;;;;;;18.47;37.58;102198.69;;;;-48
2020/01/23 05:52:22;;;;;;;5.75;5.13;;;;;;;18.52;37.54;102199.72;;;;-48
2020/01/23 05:55:22;;;;;;;5.92;4.97;;;;;;;18.56;37.52;102199.59;;;;-49
2020/01/23 05:58:21;;;;;;;5.63;5.05;;;;;;;18.57;37.62;102194.38;;;;-48
2020/01/23 06:01:22;;;;;;;5.55;4.97;;;;;;;18.60;37.57;102195.02;;;;-49
2020/01/23 06:04:22;;;;;;;5.25;4.75;;;;;;;18.62;37.55;102191.85;;;;-48
2020/01/23 06:07:22;;;;;;;5.55;5.01;;;;;;;18.66;37.59;102197.84;;;;-48
2020/01/23 06:10:22;;;;;;;5.44;4.94;;;;;;;18.68;37.56;102193.42;;;;-49
2020/01/23 06:13:22;;;;;;;5.23;4.73;;;;;;;18.70;37.58;102189.05;;;;-48
2020/01/23 06:16:22;;;;;;;5.28;4.78;;;;;;;18.74;37.47;102189.91;;;;-50
2020/01/23 06:19:22;;;;;;;5.07;4.57;;;;;;;18.76;37.49;102190.56;;;;-48
2020/01/23 06:22:21;;;;;;;5.15;4.65;;;;;;;18.78;37.55;102186.10;;;;-48
2020/01/23 06:25:22;;;;;;;5.05;4.56;;;;;;;18.81;37.50;102191.18;;;;-48
2020/01/23 06:28:22;;;;;;;5.15;4.65;;;;;;;18.82;37.55;102186.52;;;;-49
2020/01/23 06:31:22;;;;;;;5.08;4.58;;;;;;;18.85;37.48;102188.24;;;;-49
2020/01/23 06:37:22;;;;;;;4.69;4.29;;;;;;;18.89;37.46;102188.59;;;;-51
2020/01/23 06:40:22;;;;;;;5.10;4.60;;;;;;;18.91;37.52;102195.22;;;;-50
2020/01/23 06:43:22;;;;;;;4.89;4.39;;;;;;;18.93;37.38;102191.80;;;;-50
2020/01/23 06:46:22;;;;;;;4.98;4.48;;;;;;;18.95;37.36;102191.23;;;;-50
2020/01/23 06:49:22;;;;;;;4.53;4.13;;;;;;;18.97;37.30;102192.62;;;;-50
2020/01/23 06:52:22;;;;;;;4.92;4.42;;;;;;;18.99;37.31;102191.88;;;;-50
2020/01/23 06:55:22;;;;;;;4.61;4.21;;;;;;;18.99;37.41;102191.70;;;;-50
2020/01/23 06:58:22;;;;;;;4.73;4.23;;;;;;;19.01;37.33;102189.00;;;;-50
2020/01/23 07:01:22;;;;;;;4.60;4.13;;;;;;;19.04;37.19;102192.28;;;;-50
2020/01/23 07:09:22;;;;;;;4.37;3.97;;;;;;;19.05;37.34;102196.55;;;;-50
2020/01/23 07:12:37;;;;;;;4.79;4.29;;;;;;;19.06;37.35;102192.00;;;;-50
2020/01/23 07:15:22;;;;;;;4.34;3.94;;;;;;;19.07;37.24;102194.97;;;;-50
2020/01/23 07:18:22;;;;;;;4.69;4.15;;;;;;;19.09;37.23;102192.50;;;;-50
2020/01/23 07:21:22;;;;;;;4.24;3.84;;;;;;;19.10;37.34;102194.36;;;;-50
2020/01/23 07:24:22;;;;;;;4.48;4.08;;;;;;;19.11;37.29;102197.00;;;;-50
2020/01/23 07:27:22;;;;;;;6.09;3.87;;;;;;;19.14;37.22;102198.48;;;;-47
2020/01/23 07:36:57;;;;;;;5.35;4.06;;;;;;;19.21;38.10;102205.81;;;;-51
2020/01/23 07:39:56;;;;;;;4.53;3.81;;;;;;;19.24;37.75;102207.22;;;;-54
2020/01/23 07:42:56;;;;;;;4.29;3.89;;;;;;;19.26;37.66;102200.31;;;;-54
2020/01/23 07:45:56;;;;;;;4.14;3.74;;;;;;;19.26;37.66;102204.86;;;;-53
2020/01/23 07:48:56;;;;;;;4.56;4.12;;;;;;;19.27;37.50;102205.75;;;;-53
2020/01/23 07:51:57;;;;;;;5.05;3.71;;;;;;;19.27;37.46;102205.80;;;;-53
2020/01/23 07:54:57;;;;;;;4.15;3.57;;;;;;;19.27;37.34;102205.24;;;;-54
2020/01/23 07:57:56;;;;;;;3.89;3.52;;;;;;;19.27;37.23;102205.77;;;;-53
2020/01/23 08:00:56;;;;;;;4.00;3.60;;;;;;;19.27;37.36;102206.14;;;;-53
2020/01/23 08:03:56;;;;;;;4.22;3.74;;;;;;;19.26;37.21;102206.86;;;;-54
2020/01/23 08:06:56;;;;;;;3.56;3.25;;;;;;;19.26;37.26;102208.77;;;;-53
2020/01/23 08:09:57;;;;;;;3.97;3.55;;;;;;;19.26;37.12;102206.34;;;;-53
2020/01/23 08:12:56;;;;;;;3.77;3.46;;;;;;;19.25;37.27;102206.18;;;;-53
2020/01/23 08:15:57;;;;;;;3.91;3.45;;;;;;;19.26;37.16;102194.84;;;;-53
2020/01/23 08:18:57;;;;;;;5.20;3.92;;;;;;;19.26;37.15;102196.48;;;;-53
2020/01/23 08:21:56;;;;;;;6.71;4.11;;;;;;;19.28;37.10;102199.14;;;;-48
2020/01/23 08:24:56;;;;;;;7.16;3.98;;;;;;;19.30;37.45;102196.89;;;;-54
2020/01/23 08:27:56;;;;;;;5.51;4.06;;;;;;;19.32;37.24;102189.99;;;;-53
2020/01/23 08:30:56;;;;;;;5.52;4.21;;;;;;;19.32;36.75;102193.44;;;;-54
2020/01/23 08:33:56;;;;;;;10.13;3.94;;;;;;;19.36;37.72;102194.64;;;;-50
2020/01/23 08:36:57;;;;;;;7.49;4.07;;;;;;;19.41;37.79;102192.05;;;;-51
2020/01/23 08:39:56;;;;;;;4.74;3.86;;;;;;;19.41;37.80;102185.17;;;;-53
2020/01/23 08:43:05;;;;;;;6.61;3.79;;;;;;;19.43;37.67;102190.34;;;;-51
2020/01/23 08:45:57;;;;;;;5.65;3.75;;;;;;;19.43;37.59;102192.19;;;;-52
2020/01/23 08:48:56;;;;;;;4.96;3.67;;;;;;;19.43;37.49;102184.09;;;;-51
2020/01/23 08:51:56;;;;;;;4.83;3.65;;;;;;;19.43;37.49;102179.28;;;;-52
2020/01/23 08:54:57;;;;;;;4.98;3.62;;;;;;;19.41;37.41;102175.34;;;;-51
2020/01/23 08:57:57;;;;;;;5.97;3.77;;;;;;;19.42;37.37;102172.29;;;;-51
2020/01/23 09:00:56;;;;;;;4.44;3.62;;;;;;;19.41;37.26;102173.95;;;;-52
2020/01/23 09:03:56;;;;;;;4.32;3.46;;;;;;;19.42;37.35;102174.30;;;;-52
2020/01/23 09:06:56;;;;;;;5.34;3.54;;;;;;;19.42;37.23;102169.33;;;;-52
2020/01/23 09:09:57;;;;;;;4.11;3.71;;;;;;;19.41;37.25;102171.77;;;;-52
2020/01/23 09:12:57;;;;;;;4.01;3.61;;;;;;;19.41;37.23;102173.78;;;;-52
2020/01/23 09:15:57;;;;;;;4.77;3.71;;;;;;;19.41;37.25;102171.38;;;;-51
2020/01/23 09:18:56;;;;;;;5.63;3.79;;;;;;;19.45;37.57;102174.18;;;;-50
2020/01/23 09:21:56;;;;;;;4.75;3.78;;;;;;;19.47;37.80;102174.68;;;;-51
2020/01/23 09:24:56;;;;;;;4.16;3.70;;;;;;;19.49;37.73;102172.40;;;;-51
2020/01/23 09:27:56;;;;;;;5.52;3.77;;;;;;;19.50;37.67;102171.97;;;;-54
2020/01/23 09:30:57;;;;;;;4.17;3.75;;;;;;;19.50;37.74;102172.05;;;;-49
2020/01/23 09:33:57;;;;;;;4.92;3.81;;;;;;;19.54;37.83;102173.15;;;;-51
2020/01/23 09:36:57;;;;;;;4.29;3.72;;;;;;;19.56;37.97;102172.30;;;;-48
2020/01/23 09:39:56;;;;;;;4.55;3.73;;;;;;;19.56;37.86;102168.09;;;;-48
2020/01/23 09:42:56;;;;;;;3.79;3.39;;;;;;;19.58;38.06;102162.43;;;;-50
2020/01/23 09:45:56;;;;;;;4.84;3.62;;;;;;;19.59;38.01;102156.64;;;;-50
2020/01/23 09:48:56;;;;;;;4.44;3.55;;;;;;;19.61;38.02;102151.94;;;;-53
2020/01/23 09:51:56;;;;;;;7.03;3.74;;;;;;;19.61;37.61;102150.58;;;;-53
2020/01/23 09:54:57;;;;;;;4.97;3.65;;;;;;;19.61;37.48;102144.39;;;;-53
2020/01/23 09:57:56;;;;;;;4.42;3.88;;;;;;;19.62;37.44;102149.30;;;;-53
2020/01/23 10:00:56;;;;;;;4.69;3.56;;;;;;;19.63;37.62;102147.83;;;;-51
2020/01/23 10:03:57;;;;;;;4.37;3.70;;;;;;;19.65;37.64;102147.25;;;;-52
2020/01/23 10:06:57;;;;;;;4.21;3.77;;;;;;;19.66;37.84;102146.31;;;;-51
2020/01/23 10:09:57;;;;;;;5.05;3.66;;;;;;;19.66;37.75;102138.53;;;;-50
2020/01/23 10:12:57;;;;;;;4.21;3.57;;;;;;;19.66;37.83;102133.23;;;;-49
2020/01/23 10:15:56;;;;;;;4.74;3.79;;;;;;;19.67;38.06;102134.37;;;;-50
2020/01/23 10:18:56;;;;;;;4.89;3.59;;;;;;;19.65;37.87;102132.38;;;;-49
2020/01/23 10:21:56;;;;;;;6.27;3.73;;;;;;;19.66;37.92;102127.77;;;;-51
2020/01/23 10:24:58;;;;;;;5.91;3.67;;;;;;;19.67;37.93;102124.35;;;;-50
2020/01/23 10:28:15;;;;;;;5.28;3.86;;;;;;;19.66;37.90;102118.20;;;;-54
2020/01/23 10:30:57;;;;;;;4.47;3.67;;;;;;;19.68;38.00;102115.61;;;;-47
2020/01/23 10:33:56;;;;;;;7.28;3.87;;;;;;;19.68;37.60;102111.14;;;;-47
2020/01/23 10:36:56;;;;;;;9.57;3.95;;;;;;;19.70;38.17;102098.66;;;;-49
2020/01/23 10:39:56;;;;;;;6.99;4.03;;;;;;;19.74;38.67;102100.49;;;;-49
2020/01/23 10:42:56;;;;;;;8.24;4.20;;;;;;;19.75;38.69;102102.74;;;;-53
2020/01/23 10:45:56;;;;;;;5.35;3.91;;;;;;;19.76;38.67;102099.03;;;;-57
2020/01/23 10:48:56;;;;;;;7.93;3.94;;;;;;;19.78;38.43;102094.87;;;;-48
2020/01/23 10:51:56;;;;;;;13.15;4.31;;;;;;;19.78;38.44;102091.66;;;;-51
2020/01/23 10:54:56;;;;;;;9.30;3.85;;;;;;;19.80;38.60;102087.44;;;;-44
2020/01/23 10:57:56;;;;;;;6.94;3.79;;;;;;;19.79;38.28;102084.88;;;;-53
2020/01/23 11:00:56;;;;;;;5.88;3.68;;;;;;;19.80;38.58;102081.70;;;;-45
2020/01/23 11:03:56;;;;;;;10.19;3.83;;;;;;;19.81;38.48;102080.99;;;;-45
2020/01/23 11:06:56;;;;;;;5.61;3.80;;;;;;;19.82;38.38;102079.87;;;;-48
2020/01/23 11:09:56;;;;;;;5.63;3.76;;;;;;;19.84;38.97;102076.67;;;;-48
2020/01/23 11:12:56;;;;;;;9.18;3.85;;;;;;;19.87;39.13;102076.66;;;;-51
2020/01/23 11:15:56;;;;;;;7.07;3.69;;;;;;;19.86;38.43;102073.56;;;;-52
2020/01/23 11:18:57;;;;;;;5.11;3.83;;;;;;;19.89;38.59;102072.77;;;;-47
2020/01/23 11:21:56;;;;;;;7.55;3.99;;;;;;;19.90;38.54;102066.69;;;;-48
2020/01/23 11:24:56;;;;;;;11.51;3.83;;;;;;;19.96;39.73;102070.78;;;;-51
2020/01/23 11:27:57;;;;;;;11.33;3.99;;;;;;;19.97;39.04;102066.10;;;;-48
2020/01/23 11:30:56;;;;;;;7.54;3.64;;;;;;;19.95;38.61;102059.09;;;;-45
2020/01/23 11:33:56;;;;;;;7.58;3.77;;;;;;;19.97;38.99;102052.69;;;;-51
2020/01/23 11:36:56;;;;;;;8.49;3.61;;;;;;;19.96;38.98;102044.40;;;;-54
2020/01/23 11:39:56;;;;;;;6.18;3.49;;;;;;;19.99;38.77;102046.43;;;;-55
2020/01/23 11:42:56;;;;;;;12.69;3.93;;;;;;;20.00;39.34;102040.69;;;;-50
2020/01/23 11:45:56;;;;;;;13.19;4.18;;;;;;;20.02;39.68;102035.25;;;;-48
2020/01/23 11:51:57;;;;;;;12.05;3.99;;;;;;;20.02;38.81;102031.93;;;;-57
2020/01/23 11:57:56;;;;;;;7.83;3.68;;;;;;;20.01;38.71;102021.59;;;;-51
2020/01/23 12:00:59;;;;;;;9.36;3.83;;;;;;;19.99;38.32;102015.59;;;;-48
2020/01/23 12:03:56;;;;;;;10.94;3.73;;;;;;;19.98;38.42;102011.25;;;;-50
2020/01/23 12:06:57;;;;;;;10.21;3.64;;;;;;;19.96;38.52;102007.73;;;;-46
2020/01/23 12:09:56;;;;;;;6.23;4.07;;;;;;;19.94;37.97;102005.02;;;;-53
2020/01/23 12:12:56;;;;;;;11.65;3.80;;;;;;;19.94;38.35;101996.36;;;;-56
2020/01/23 12:15:56;;;;;;;8.91;3.74;;;;;;;19.96;39.27;101997.61;;;;-49
2020/01/23 12:18:56;;;;;;;11.23;4.02;;;;;;;19.95;38.25;101988.94;;;;-52
2020/01/23 12:21:56;;;;;;;9.76;3.90;;;;;;;19.93;38.26;101983.66;;;;-50
2020/01/23 12:24:56;;;;;;;7.69;3.73;;;;;;;19.93;38.32;101983.11;;;;-49
2020/01/23 12:27:56;;;;;;;6.07;3.57;;;;;;;19.90;38.22;101980.98;;;;-49
2020/01/23 12:30:56;;;;;;;8.73;3.93;;;;;;;19.90;37.70;101979.33;;;;-59
2020/01/23 12:33:57;;;;;;;10.08;3.73;;;;;;;19.90;38.08;101978.64;;;;-51
2020/01/23 12:36:56;;;;;;;5.12;3.89;;;;;;;19.88;37.73;101971.92;;;;-50
2020/01/23 12:39:56;;;;;;;6.62;3.52;;;;;;;19.86;37.83;101967.30;;;;-51
2020/01/23 12:42:57;;;;;;;8.21;3.71;;;;;;;19.84;37.79;101961.71;;;;-51
2020/01/23 12:45:57;;;;;;;7.23;3.69;;;;;;;19.83;37.72;101958.06;;;;-51
2020/01/23 12:48:56;;;;;;;7.36;3.54;;;;;;;19.82;37.72;101948.25;;;;-50
2020/01/23 12:51:56;;;;;;;8.37;3.61;;;;;;;19.81;37.60;101944.80;;;;-47
2020/01/23 12:54:56;;;;;;;7.45;3.47;;;;;;;19.82;37.85;101937.21;;;;-48
2020/01/23 12:57:56;;;;;;;9.96;3.79;;;;;;;19.82;38.07;101928.43;;;;-49
2020/01/23 13:00:58;;;;;;;5.26;3.31;;;;;;;19.85;38.13;101921.80;;;;-52
2020/01/23 13:03:56;;;;;;;4.95;3.33;;;;;;;19.85;38.03;101911.36;;;;-48
2020/01/23 13:06:56;;;;;;;4.65;3.49;;;;;;;19.87;38.06;101908.52;;;;-50
2020/01/23 13:09:57;;;;;;;4.76;3.31;;;;;;;19.89;38.03;101901.27;;;;-51
2020/01/23 13:12:56;;;;;;;5.67;3.39;;;;;;;19.90;38.06;101894.63;;;;-46
2020/01/23 13:15:56;;;;;;;6.66;3.42;;;;;;;19.90;38.11;101893.29;;;;-51
2020/01/23 13:18:56;;;;;;;6.13;3.51;;;;;;;19.90;37.87;101885.24;;;;-51
2020/01/23 13:21:56;;;;;;;3.55;3.17;;;;;;;19.89;37.73;101880.48;;;;-51
2020/01/23 13:24:56;;;;;;;5.13;3.17;;;;;;;19.88;37.79;101877.14;;;;-51
2020/01/23 13:27:56;;;;;;;6.43;3.25;;;;;;;19.87;37.66;101877.29;;;;-51
2020/01/23 13:30:56;;;;;;;4.05;3.25;;;;;;;19.86;37.60;101874.59;;;;-51
2020/01/23 13:33:56;;;;;;;3.80;3.13;;;;;;;19.85;37.62;101870.95;;;;-51
2020/01/23 13:36:56;;;;;;;5.03;3.47;;;;;;;19.85;37.57;101868.11;;;;-51
2020/01/23 13:39:56;;;;;;;4.13;3.01;;;;;;;19.84;37.65;101867.77;;;;-51
2020/01/23 13:42:56;;;;;;;4.46;3.09;;;;;;;19.84;37.57;101860.53;;;;-51
2020/01/23 13:45:56;;;;;;;4.02;3.09;;;;;;;19.83;37.42;101855.12;;;;-51
2020/01/23 13:48:56;;;;;;;4.37;3.36;;;;;;;19.83;37.50;101846.50;;;;-51
2020/01/23 13:51:56;;;;;;;3.57;3.21;;;;;;;19.82;37.57;101841.08;;;;-51
2020/01/23 13:54:56;;;;;;;4.25;2.89;;;;;;;19.82;37.54;101836.94;;;;-51
2020/01/23 13:57:56;;;;;;;4.05;3.19;;;;;;;19.81;37.60;101832.17;;;;-51
2020/01/23 14:00:57;;;;;;;3.15;2.85;;;;;;;19.80;37.54;101829.55;;;;-51
2020/01/23 14:03:56;;;;;;;4.49;3.10;;;;;;;19.80;37.49;101825.20;;;;-50
2020/01/23 14:06:56;;;;;;;5.25;3.17;;;;;;;19.82;37.58;101822.03;;;;-59
2020/01/23 14:09:56;;;;;;;3.49;2.99;;;;;;;19.83;37.79;101822.38;;;;-52
2020/01/23 14:12:56;;;;;;;4.10;3.22;;;;;;;19.85;37.93;101813.56;;;;-50
2020/01/23 14:15:56;;;;;;;5.63;3.03;;;;;;;19.85;37.85;101808.48;;;;-51
2020/01/23 14:18:56;;;;;;;4.94;3.08;;;;;;;19.87;37.99;101798.86;;;;-54
2020/01/23 14:21:56;;;;;;;4.56;3.03;;;;;;;19.89;38.07;101793.88;;;;-50
2020/01/23 14:24:56;;;;;;;4.27;3.07;;;;;;;19.89;37.87;101788.09;;;;-51
2020/01/23 14:27:56;;;;;;;10.56;3.96;;;;;;;19.88;37.37;101784.01;;;;-54
2020/01/23 14:30:56;;;;;;;5.58;3.64;;;;;;;19.87;37.06;101786.03;;;;-54
2020/01/23 14:33:56;;;;;;;7.17;3.77;;;;;;;19.86;37.02;101776.63;;;;-54
2020/01/23 14:36:56;;;;;;;4.11;3.45;;;;;;;19.86;37.20;101774.06;;;;-54
2020/01/23 14:39:59;;;;;;;7.99;3.42;;;;;;;19.86;37.23;101769.63;;;;-54
2020/01/23 14:42:56;;;;;;;4.82;3.14;;;;;;;19.85;37.39;101770.59;;;;-55
2020/01/23 14:45:56;;;;;;;5.72;3.26;;;;;;;19.85;37.28;101763.82;;;;-54
2020/01/23 14:48:56;;;;;;;7.02;3.21;;;;;;;19.83;37.34;101756.66;;;;-54
2020/01/23 14:51:56;;;;;;;4.95;3.44;;;;;;;19.84;37.30;101756.77;;;;-53
2020/01/23 14:54:56;;;;;;;4.07;2.86;;;;;;;19.83;37.34;101749.50;;;;-54
2020/01/23 14:57:56;;;;;;;4.08;3.21;;;;;;;19.83;37.38;101745.57;;;;-54
2020/01/23 15:00:57;;;;;;;4.87;3.21;;;;;;;19.83;37.39;101749.67;;;;-54
2020/01/23 15:03:56;;;;;;;4.57;3.04;;;;;;;19.83;37.37;101752.35;;;;-54
2020/01/23 15:06:56;;;;;;;7.18;3.32;;;;;;;19.83;37.44;101748.42;;;;-54
2020/01/23 15:09:56;;;;;;;3.35;2.85;;;;;;;19.83;37.18;101744.81;;;;-54
2020/01/23 15:12:56;;;;;;;4.67;3.33;;;;;;;19.83;37.36;101740.94;;;;-53
2020/01/23 15:15:56;;;;;;;4.02;3.09;;;;;;;19.83;37.35;101735.57;;;;-54
2020/01/23 15:18:56;;;;;;;3.61;3.05;;;;;;;19.83;37.27;101733.91;;;;-55
2020/01/23 15:21:56;;;;;;;4.63;2.99;;;;;;;19.82;37.43;101729.94;;;;-53
2020/01/23 15:24:56;;;;;;;3.61;3.22;;;;;;;19.82;37.33;101729.77;;;;-54
2020/01/23 15:27:56;;;;;;;4.45;3.15;;;;;;;19.81;37.39;101723.04;;;;-54
2020/01/23 15:30:56;;;;;;;3.89;3.13;;;;;;;19.82;37.34;101719.54;;;;-50
2020/01/23 15:33:56;;;;;;;5.34;3.01;;;;;;;19.85;37.54;101718.72;;;;-49
2020/01/23 15:36:56;;;;;;;3.99;3.33;;;;;;;19.84;37.67;101712.45;;;;-52
2020/01/23 15:39:56;;;;;;;5.97;3.24;;;;;;;19.88;37.67;101711.09;;;;-50
2020/01/23 15:42:56;;;;;;;3.69;3.03;;;;;;;19.90;37.71;101707.01;;;;-51
2020/01/23 15:45:56;;;;;;;4.37;3.17;;;;;;;19.91;37.93;101709.92;;;;-48
2020/01/23 15:48:56;;;;;;;3.37;3.03;;;;;;;19.93;37.96;101709.00;;;;-47
2020/01/23 15:51:56;;;;;;;3.51;3.13;;;;;;;19.92;37.93;101706.75;;;;-48
2020/01/23 15:54:56;;;;;;;4.22;3.16;;;;;;;19.93;37.92;101705.77;;;;-48
2020/01/23 15:57:56;;;;;;;5.70;3.05;;;;;;;19.93;37.96;101700.78;;;;-55
2020/01/23 16:00:56;;;;;;;4.01;3.20;;;;;;;19.94;38.02;101699.28;;;;-47
2020/01/23 16:03:56;;;;;;;3.39;3.04;;;;;;;19.96;38.14;101700.41;;;;-49
2020/01/23 16:06:56;;;;;;;4.00;3.33;;;;;;;19.97;38.09;101700.03;;;;-52
2020/01/23 16:09:58;;;;;;;3.82;3.21;;;;;;;19.97;38.00;101697.23;;;;-51
2020/01/23 16:13:04;;;;;;;3.76;3.28;;;;;;;19.97;38.12;101703.44;;;;-49
2020/01/23 16:15:59;;;;;;;3.65;2.96;;;;;;;19.98;38.11;101702.22;;;;-53
2020/01/23 16:18:57;;;;;;;4.67;3.40;;;;;;;19.97;38.10;101708.36;;;;-58
2020/01/23 16:21:56;;;;;;;3.51;3.21;;;;;;;19.98;38.25;101707.83;;;;-55
2020/01/23 16:24:56;;;;;;;3.64;3.27;;;;;;;19.98;38.04;101706.22;;;;-52
2020/01/23 16:27:56;;;;;;;3.77;3.14;;;;;;;19.98;37.87;101705.20;;;;-55
2020/01/23 16:30:56;;;;;;;3.43;3.13;;;;;;;19.96;37.85;101708.47;;;;-55
2020/01/23 16:33:56;;;;;;;4.45;3.21;;;;;;;19.95;37.75;101710.19;;;;-55
2020/01/23 16:36:56;;;;;;;4.45;3.17;;;;;;;19.94;37.75;101714.98;;;;-55
2020/01/23 16:39:56;;;;;;;3.47;3.07;;;;;;;19.92;37.63;101713.12;;;;-55
2020/01/23 16:42:56;;;;;;;3.41;3.03;;;;;;;19.92;37.59;101718.16;;;;-55
2020/01/23 16:45:56;;;;;;;3.87;3.31;;;;;;;19.90;37.54;101714.63;;;;-55
2020/01/23 16:48:56;;;;;;;4.33;3.11;;;;;;;19.90;37.63;101713.62;;;;-55
2020/01/23 16:51:56;;;;;;;3.59;3.11;;;;;;;19.89;37.55;101716.34;;;;-55
2020/01/23 16:54:56;;;;;;;3.68;3.10;;;;;;;19.88;37.49;101710.14;;;;-55
2020/01/23 16:57:56;;;;;;;4.75;3.45;;;;;;;19.87;37.54;101707.48;;;;-55
2020/01/23 17:00:56;;;;;;;3.43;3.13;;;;;;;19.86;37.46;101708.84;;;;-55
2020/01/23 17:03:56;;;;;;;3.69;3.34;;;;;;;19.85;37.54;101715.20;;;;-54
2020/01/23 17:06:56;;;;;;;3.71;3.31;;;;;;;19.84;37.46;101718.22;;;;-55
2020/01/23 17:09:56;;;;;;;3.79;3.39;;;;;;;19.84;37.51;101719.88;;;;-55
2020/01/23 17:12:56;;;;;;;3.70;3.35;;;;;;;19.83;37.48;101716.06;;;;-55